sensor_id;sensor_type;location;lat;lon;timestamp;pressure;altitude;pressure_sealevel;temperature;humidity
36138;BME280;67787;50.074;21.904;2023-03-11T00:00:53;96550.10;;;8.10;70.90
36138;BME280;67787;50.074;21.904;2023-03-11T00:03:27;96547.98;;;8.03;70.94
36138;BME280;67787;50.074;21.904;2023-03-11T00:05:55;96551.52;;;7.96;70.84
36138;BME280;67787;50.074;21.904;2023-03-11T00:08:23;96547.61;;;7.90;70.82
36138;BME280;67787;50.074;21.904;2023-03-11T00:10:53;96545.30;;;7.83;71.12
36138;BME280;67787;50.074;21.904;2023-03-11T00:13:20;96550.35;;;7.78;71.27
36138;BME280;67787;50.074;21.904;2023-03-11T00:15:48;96543.09;;;7.73;71.14
36138;BME280;67787;50.074;21.904;2023-03-11T00:18:16;96540.30;;;7.70;71.11
36138;BME280;67787;50.074;21.904;2023-03-11T00:20:45;96537.33;;;7.67;71.28
36138;BME280;67787;50.074;21.904;2023-03-11T00:23:13;96528.75;;;7.67;71.28
36138;BME280;67787;50.074;21.904;2023-03-11T00:25:42;96524.64;;;7.65;71.33
36138;BME280;67787;50.074;21.904;2023-03-11T00:28:09;96528.16;;;7.66;71.46
36138;BME280;67787;50.074;21.904;2023-03-11T00:30:37;96526.20;;;7.66;71.45
36138;BME280;67787;50.074;21.904;2023-03-11T00:33:06;96523.00;;;7.66;71.52
36138;BME280;67787;50.074;21.904;2023-03-11T00:35:33;96522.17;;;7.67;71.62
36138;BME280;67787;50.074;21.904;2023-03-11T00:38:05;96521.75;;;7.68;71.64
36138;BME280;67787;50.074;21.904;2023-03-11T00:40:34;96516.56;;;7.69;71.49
36138;BME280;67787;50.074;21.904;2023-03-11T00:43:01;96517.14;;;7.70;71.55
36138;BME280;67787;50.074;21.904;2023-03-11T00:45:29;96513.54;;;7.71;71.76
36138;BME280;67787;50.074;21.904;2023-03-11T00:47:57;96510.23;;;7.72;71.56
36138;BME280;67787;50.074;21.904;2023-03-11T00:50:28;96510.23;;;7.74;71.93
36138;BME280;67787;50.074;21.904;2023-03-11T00:52:55;96509.34;;;7.75;72.00
36138;BME280;67787;50.074;21.904;2023-03-11T00:55:25;96508.80;;;7.78;71.81
36138;BME280;67787;50.074;21.904;2023-03-11T00:57:53;96506.52;;;7.79;71.79
36138;BME280;67787;50.074;21.904;2023-03-11T01:00:23;96499.23;;;7.81;71.75
36138;BME280;67787;50.074;21.904;2023-03-11T01:02:50;96494.17;;;7.82;71.93
36138;BME280;67787;50.074;21.904;2023-03-11T01:05:24;96488.33;;;7.84;71.95
36138;BME280;67787;50.074;21.904;2023-03-11T01:07:52;96486.65;;;7.85;72.01
36138;BME280;67787;50.074;21.904;2023-03-11T01:10:18;96490.30;;;7.87;71.79
36138;BME280;67787;50.074;21.904;2023-03-11T01:12:45;96491.30;;;7.88;71.89
36138;BME280;67787;50.074;21.904;2023-03-11T01:15:19;96491.77;;;7.89;72.15
36138;BME280;67787;50.074;21.904;2023-03-11T01:17:46;96492.09;;;7.89;72.03
36138;BME280;67787;50.074;21.904;2023-03-11T01:20:13;96492.90;;;7.90;72.13
36138;BME280;67787;50.074;21.904;2023-03-11T01:22:40;96490.94;;;7.90;72.13
36138;BME280;67787;50.074;21.904;2023-03-11T01:25:09;96488.76;;;7.90;72.13
36138;BME280;67787;50.074;21.904;2023-03-11T01:27:37;96485.75;;;7.91;72.25
36138;BME280;67787;50.074;21.904;2023-03-11T01:30:05;96478.50;;;7.91;72.24
36138;BME280;67787;50.074;21.904;2023-03-11T01:32:31;96478.78;;;7.92;72.30
36138;BME280;67787;50.074;21.904;2023-03-11T01:34:58;96475.60;;;7.92;72.26
36138;BME280;67787;50.074;21.904;2023-03-11T01:37:24;96470.77;;;7.93;72.43
36138;BME280;67787;50.074;21.904;2023-03-11T01:39:51;96474.25;;;7.93;72.29
36138;BME280;67787;50.074;21.904;2023-03-11T01:42:18;96469.15;;;7.93;72.27
36138;BME280;67787;50.074;21.904;2023-03-11T01:44:45;96468.46;;;7.92;72.31
36138;BME280;67787;50.074;21.904;2023-03-11T01:49:39;96470.52;;;7.93;72.34
36138;BME280;67787;50.074;21.904;2023-03-11T01:52:08;96465.79;;;7.93;72.42
36138;BME280;67787;50.074;21.904;2023-03-11T01:54:39;96471.41;;;7.93;72.27
36138;BME280;67787;50.074;21.904;2023-03-11T01:57:12;96474.05;;;7.93;72.37
36138;BME280;67787;50.074;21.904;2023-03-11T01:59:45;96470.42;;;7.92;72.54
36138;BME280;67787;50.074;21.904;2023-03-11T02:02:21;96468.52;;;7.92;72.63
36138;BME280;67787;50.074;21.904;2023-03-11T02:04:50;96465.80;;;7.90;72.52
36138;BME280;67787;50.074;21.904;2023-03-11T02:07:17;96467.59;;;7.90;72.78
36138;BME280;67787;50.074;21.904;2023-03-11T02:09:44;96467.95;;;7.90;72.48
36138;BME280;67787;50.074;21.904;2023-03-11T02:12:12;96466.60;;;7.90;72.73
36138;BME280;67787;50.074;21.904;2023-03-11T02:14:43;96468.08;;;7.89;72.71
36138;BME280;67787;50.074;21.904;2023-03-11T02:17:11;96467.11;;;7.88;72.64
36138;BME280;67787;50.074;21.904;2023-03-11T02:20:07;96464.96;;;7.87;72.50
36138;BME280;67787;50.074;21.904;2023-03-11T02:22:40;96461.14;;;7.84;72.64
36138;BME280;67787;50.074;21.904;2023-03-11T02:25:28;96458.84;;;7.83;72.75
36138;BME280;67787;50.074;21.904;2023-03-11T02:27:58;96455.46;;;7.81;72.93
36138;BME280;67787;50.074;21.904;2023-03-11T02:30:27;96455.46;;;7.81;72.79
36138;BME280;67787;50.074;21.904;2023-03-11T02:32:55;96459.52;;;7.82;72.82
36138;BME280;67787;50.074;21.904;2023-03-11T02:35:22;96459.34;;;7.81;72.76
36138;BME280;67787;50.074;21.904;2023-03-11T02:37:51;96461.91;;;7.81;72.98
36138;BME280;67787;50.074;21.904;2023-03-11T02:42:50;96461.84;;;7.79;72.85
36138;BME280;67787;50.074;21.904;2023-03-11T02:45:21;96460.48;;;7.81;73.09
36138;BME280;67787;50.074;21.904;2023-03-11T02:47:51;96458.50;;;7.79;72.84
36138;BME280;67787;50.074;21.904;2023-03-11T02:50:18;96451.71;;;7.78;72.92
36138;BME280;67787;50.074;21.904;2023-03-11T02:52:47;96451.35;;;7.79;72.95
36138;BME280;67787;50.074;21.904;2023-03-11T02:55:15;96451.55;;;7.78;73.04
36138;BME280;67787;50.074;21.904;2023-03-11T02:57:44;96451.28;;;7.78;73.25
36138;BME280;67787;50.074;21.904;2023-03-11T03:00:11;96443.92;;;7.77;73.24
36138;BME280;67787;50.074;21.904;2023-03-11T03:02:41;96444.83;;;7.75;73.32
36138;BME280;67787;50.074;21.904;2023-03-11T03:05:09;96442.12;;;7.74;73.37
36138;BME280;67787;50.074;21.904;2023-03-11T03:07:36;96443.92;;;7.73;73.20
36138;BME280;67787;50.074;21.904;2023-03-11T03:10:05;96443.75;;;7.73;73.21
36138;BME280;67787;50.074;21.904;2023-03-11T03:12:32;96439.33;;;7.73;73.28
36138;BME280;67787;50.074;21.904;2023-03-11T03:14:58;96440.30;;;7.73;73.15
36138;BME280;67787;50.074;21.904;2023-03-11T03:17:25;96441.94;;;7.72;73.24
36138;BME280;67787;50.074;21.904;2023-03-11T03:19:51;96441.90;;;7.71;73.34
36138;BME280;67787;50.074;21.904;2023-03-11T03:22:18;96440.43;;;7.69;73.50
36138;BME280;67787;50.074;21.904;2023-03-11T03:24:45;96439.38;;;7.70;73.36
36138;BME280;67787;50.074;21.904;2023-03-11T03:27:12;96441.01;;;7.69;73.42
36138;BME280;67787;50.074;21.904;2023-03-11T03:29:38;96438.89;;;7.69;73.21
36138;BME280;67787;50.074;21.904;2023-03-11T03:32:05;96433.82;;;7.69;73.33
36138;BME280;67787;50.074;21.904;2023-03-11T03:34:32;96433.95;;;7.68;73.27
36138;BME280;67787;50.074;21.904;2023-03-11T03:36:58;96429.73;;;7.67;73.48
36138;BME280;67787;50.074;21.904;2023-03-11T03:39:26;96434.64;;;7.68;73.38
36138;BME280;67787;50.074;21.904;2023-03-11T03:41:56;96428.48;;;7.67;73.53
36138;BME280;67787;50.074;21.904;2023-03-11T03:44:22;96429.55;;;7.68;73.59
36138;BME280;67787;50.074;21.904;2023-03-11T03:46:49;96425.77;;;7.68;73.62
36138;BME280;67787;50.074;21.904;2023-03-11T03:49:16;96426.14;;;7.68;73.53
36138;BME280;67787;50.074;21.904;2023-03-11T03:51:42;96422.20;;;7.67;73.63
36138;BME280;67787;50.074;21.904;2023-03-11T03:54:10;96422.04;;;7.67;73.58
36138;BME280;67787;50.074;21.904;2023-03-11T03:56:36;96419.12;;;7.66;73.71
36138;BME280;67787;50.074;21.904;2023-03-11T03:59:03;96418.52;;;7.65;73.65
36138;BME280;67787;50.074;21.904;2023-03-11T04:01:29;96422.17;;;7.64;73.71
36138;BME280;67787;50.074;21.904;2023-03-11T04:03:56;96421.61;;;7.64;73.72
36138;BME280;67787;50.074;21.904;2023-03-11T04:06:24;96418.58;;;7.64;73.79
36138;BME280;67787;50.074;21.904;2023-03-11T04:08:52;96414.39;;;7.64;73.67
36138;BME280;67787;50.074;21.904;2023-03-11T04:11:20;96422.55;;;7.65;73.62
36138;BME280;67787;50.074;21.904;2023-03-11T04:13:47;96419.54;;;7.65;73.59
36138;BME280;67787;50.074;21.904;2023-03-11T04:16:16;96418.39;;;7.66;73.62
36138;BME280;67787;50.074;21.904;2023-03-11T04:18:44;96420.48;;;7.66;73.66
36138;BME280;67787;50.074;21.904;2023-03-11T04:21:11;96417.94;;;7.67;73.76
36138;BME280;67787;50.074;21.904;2023-03-11T04:23:38;96418.46;;;7.67;73.97
36138;BME280;67787;50.074;21.904;2023-03-11T04:26:04;96420.89;;;7.68;73.65
36138;BME280;67787;50.074;21.904;2023-03-11T04:28:31;96420.32;;;7.68;73.84
36138;BME280;67787;50.074;21.904;2023-03-11T04:30:58;96418.80;;;7.69;73.70
36138;BME280;67787;50.074;21.904;2023-03-11T04:33:24;96419.08;;;7.70;73.86
36138;BME280;67787;50.074;21.904;2023-03-11T04:35:51;96422.26;;;7.71;73.46
36138;BME280;67787;50.074;21.904;2023-03-11T04:38:18;96419.11;;;7.71;73.81
36138;BME280;67787;50.074;21.904;2023-03-11T04:40:44;96419.83;;;7.69;73.65
36138;BME280;67787;50.074;21.904;2023-03-11T04:43:12;96420.35;;;7.68;73.77
36138;BME280;67787;50.074;21.904;2023-03-11T04:45:39;96417.40;;;7.66;73.55
36138;BME280;67787;50.074;21.904;2023-03-11T04:48:06;96414.30;;;7.63;73.73
36138;BME280;67787;50.074;21.904;2023-03-11T04:50:33;96410.16;;;7.60;73.60
36138;BME280;67787;50.074;21.904;2023-03-11T04:52:59;96406.85;;;7.58;73.50
36138;BME280;67787;50.074;21.904;2023-03-11T04:55:26;96405.59;;;7.57;73.44
36138;BME280;67787;50.074;21.904;2023-03-11T04:57:53;96410.83;;;7.55;73.58
36138;BME280;67787;50.074;21.904;2023-03-11T05:00:20;96413.42;;;7.54;73.52
36138;BME280;67787;50.074;21.904;2023-03-11T05:02:50;96406.92;;;7.54;73.61
36138;BME280;67787;50.074;21.904;2023-03-11T05:05:17;96400.35;;;7.53;73.61
36138;BME280;67787;50.074;21.904;2023-03-11T05:07:47;96403.48;;;7.51;73.56
36138;BME280;67787;50.074;21.904;2023-03-11T05:10:14;96401.72;;;7.50;73.41
36138;BME280;67787;50.074;21.904;2023-03-11T05:12:50;96399.15;;;7.49;73.53
36138;BME280;67787;50.074;21.904;2023-03-11T05:15:18;96400.48;;;7.48;73.66
36138;BME280;67787;50.074;21.904;2023-03-11T05:17:44;96397.64;;;7.47;73.75
36138;BME280;67787;50.074;21.904;2023-03-11T05:20:12;96396.80;;;7.44;73.55
36138;BME280;67787;50.074;21.904;2023-03-11T05:22:41;96397.94;;;7.43;73.51
36138;BME280;67787;50.074;21.904;2023-03-11T05:25:08;96391.47;;;7.43;73.83
36138;BME280;67787;50.074;21.904;2023-03-11T05:27:35;96393.65;;;7.44;73.65
36138;BME280;67787;50.074;21.904;2023-03-11T05:30:02;96393.18;;;7.43;73.74
36138;BME280;67787;50.074;21.904;2023-03-11T05:32:29;96395.61;;;7.44;73.82
36138;BME280;67787;50.074;21.904;2023-03-11T05:34:56;96399.87;;;7.43;73.81
36138;BME280;67787;50.074;21.904;2023-03-11T05:37:22;96405.85;;;7.44;73.69
36138;BME280;67787;50.074;21.904;2023-03-11T05:39:51;96409.55;;;7.44;73.79
36138;BME280;67787;50.074;21.904;2023-03-11T05:42:17;96409.33;;;7.44;73.74
36138;BME280;67787;50.074;21.904;2023-03-11T05:44:47;96409.32;;;7.44;73.31
36138;BME280;67787;50.074;21.904;2023-03-11T05:47:16;96408.73;;;7.43;73.36
36138;BME280;67787;50.074;21.904;2023-03-11T05:49:42;96409.41;;;7.43;73.29
36138;BME280;67787;50.074;21.904;2023-03-11T05:52:09;96411.04;;;7.43;73.33
36138;BME280;67787;50.074;21.904;2023-03-11T05:54:36;96404.00;;;7.43;73.13
36138;BME280;67787;50.074;21.904;2023-03-11T05:57:02;96406.76;;;7.42;73.08
36138;BME280;67787;50.074;21.904;2023-03-11T05:59:29;96406.84;;;7.41;73.03
36138;BME280;67787;50.074;21.904;2023-03-11T06:01:57;96410.64;;;7.42;73.20
36138;BME280;67787;50.074;21.904;2023-03-11T06:04:24;96413.88;;;7.43;72.89
36138;BME280;67787;50.074;21.904;2023-03-11T06:06:52;96419.88;;;7.44;73.09
36138;BME280;67787;50.074;21.904;2023-03-11T06:09:18;96424.29;;;7.48;73.26
36138;BME280;67787;50.074;21.904;2023-03-11T06:11:44;96429.41;;;7.53;73.08
36138;BME280;67787;50.074;21.904;2023-03-11T06:14:12;96428.99;;;7.57;72.56
36138;BME280;67787;50.074;21.904;2023-03-11T06:16:40;96433.18;;;7.61;72.46
36138;BME280;67787;50.074;21.904;2023-03-11T06:19:07;96434.56;;;7.65;72.58
36138;BME280;67787;50.074;21.904;2023-03-11T06:21:34;96438.05;;;7.69;72.50
36138;BME280;67787;50.074;21.904;2023-03-11T06:24:00;96441.14;;;7.71;72.98
36138;BME280;67787;50.074;21.904;2023-03-11T06:26:27;96445.48;;;7.74;72.67
36138;BME280;67787;50.074;21.904;2023-03-11T06:28:53;96448.48;;;7.72;72.36
36138;BME280;67787;50.074;21.904;2023-03-11T06:31:22;96453.33;;;7.69;72.77
36138;BME280;67787;50.074;21.904;2023-03-11T06:33:50;96464.73;;;7.68;72.50
36138;BME280;67787;50.074;21.904;2023-03-11T06:36:18;96462.73;;;7.64;72.57
36138;BME280;67787;50.074;21.904;2023-03-11T06:38:45;96464.73;;;7.61;72.68
36138;BME280;67787;50.074;21.904;2023-03-11T06:41:16;96467.40;;;7.59;71.95
36138;BME280;67787;50.074;21.904;2023-03-11T06:43:43;96460.17;;;7.56;71.61
36138;BME280;67787;50.074;21.904;2023-03-11T06:46:20;96462.64;;;7.54;72.02
36138;BME280;67787;50.074;21.904;2023-03-11T06:48:48;96463.53;;;7.52;70.59
36138;BME280;67787;50.074;21.904;2023-03-11T06:51:18;96459.73;;;7.48;70.20
36138;BME280;67787;50.074;21.904;2023-03-11T06:53:52;96463.42;;;7.46;71.35
36138;BME280;67787;50.074;21.904;2023-03-11T06:56:21;96473.20;;;7.44;71.63
36138;BME280;67787;50.074;21.904;2023-03-11T06:58:48;96475.42;;;7.41;71.09
36138;BME280;67787;50.074;21.904;2023-03-11T07:01:18;96475.71;;;7.35;70.42
36138;BME280;67787;50.074;21.904;2023-03-11T07:03:47;96474.99;;;7.29;70.72
36138;BME280;67787;50.074;21.904;2023-03-11T07:06:24;96478.70;;;7.26;70.44
36138;BME280;67787;50.074;21.904;2023-03-11T07:08:52;96484.42;;;7.21;70.51
36138;BME280;67787;50.074;21.904;2023-03-11T07:11:24;96486.54;;;7.18;71.23
36138;BME280;67787;50.074;21.904;2023-03-11T07:13:53;96490.59;;;7.16;71.21
36138;BME280;67787;50.074;21.904;2023-03-11T07:16:25;96489.64;;;7.13;71.02
36138;BME280;67787;50.074;21.904;2023-03-11T07:18:54;96492.41;;;7.12;71.12
36138;BME280;67787;50.074;21.904;2023-03-11T07:21:22;96493.86;;;7.11;70.81
36138;BME280;67787;50.074;21.904;2023-03-11T07:23:53;96489.58;;;7.09;70.51
36138;BME280;67787;50.074;21.904;2023-03-11T07:26:20;96485.54;;;7.03;70.74
36138;BME280;67787;50.074;21.904;2023-03-11T07:28:49;96485.30;;;7.00;70.46
36138;BME280;67787;50.074;21.904;2023-03-11T07:31:19;96489.51;;;6.93;70.01
36138;BME280;67787;50.074;21.904;2023-03-11T07:33:46;96482.31;;;6.89;70.57
36138;BME280;67787;50.074;21.904;2023-03-11T07:36:16;96487.38;;;6.88;70.93
36138;BME280;67787;50.074;21.904;2023-03-11T07:38:43;96486.41;;;6.89;71.26
36138;BME280;67787;50.074;21.904;2023-03-11T07:41:11;96490.59;;;6.88;70.68
36138;BME280;67787;50.074;21.904;2023-03-11T07:43:40;96496.18;;;6.84;70.57
36138;BME280;67787;50.074;21.904;2023-03-11T07:46:13;96497.13;;;6.83;70.85
36138;BME280;67787;50.074;21.904;2023-03-11T07:48:41;96500.30;;;6.86;70.83
36138;BME280;67787;50.074;21.904;2023-03-11T07:51:17;96502.08;;;6.85;70.93
36138;BME280;67787;50.074;21.904;2023-03-11T07:53:45;96507.84;;;6.84;71.10
36138;BME280;67787;50.074;21.904;2023-03-11T07:56:14;96510.70;;;6.80;70.88
36138;BME280;67787;50.074;21.904;2023-03-11T07:58:42;96528.92;;;6.72;70.51
36138;BME280;67787;50.074;21.904;2023-03-11T08:01:14;96538.45;;;6.57;70.04
36138;BME280;67787;50.074;21.904;2023-03-11T08:03:45;96534.44;;;6.44;70.30
36138;BME280;67787;50.074;21.904;2023-03-11T08:06:18;96535.10;;;6.37;70.36
36138;BME280;67787;50.074;21.904;2023-03-11T08:08:47;96532.86;;;6.34;70.74
36138;BME280;67787;50.074;21.904;2023-03-11T08:11:14;96536.30;;;6.37;70.89
36138;BME280;67787;50.074;21.904;2023-03-11T08:13:42;96531.94;;;6.38;70.80
36138;BME280;67787;50.074;21.904;2023-03-11T08:16:12;96527.71;;;6.35;70.56
36138;BME280;67787;50.074;21.904;2023-03-11T08:18:39;96534.23;;;6.33;70.80
36138;BME280;67787;50.074;21.904;2023-03-11T08:21:10;96534.13;;;6.34;70.55
36138;BME280;67787;50.074;21.904;2023-03-11T08:23:37;96533.79;;;6.36;70.91
36138;BME280;67787;50.074;21.904;2023-03-11T08:26:11;96523.99;;;6.44;71.05
36138;BME280;67787;50.074;21.904;2023-03-11T08:28:38;96529.13;;;6.59;71.15
36138;BME280;67787;50.074;21.904;2023-03-11T08:31:19;96538.11;;;6.59;70.85
36138;BME280;67787;50.074;21.904;2023-03-11T08:33:49;96538.58;;;6.45;70.93
36138;BME280;67787;50.074;21.904;2023-03-11T08:36:16;96547.91;;;6.41;70.81
36138;BME280;67787;50.074;21.904;2023-03-11T08:38:43;96550.48;;;6.29;70.87
36138;BME280;67787;50.074;21.904;2023-03-11T08:41:09;96561.15;;;6.22;70.72
36138;BME280;67787;50.074;21.904;2023-03-11T08:43:36;96563.55;;;6.09;70.52
36138;BME280;67787;50.074;21.904;2023-03-11T08:46:05;96563.21;;;5.92;70.58
36138;BME280;67787;50.074;21.904;2023-03-11T08:48:36;96554.98;;;5.78;70.92
36138;BME280;67787;50.074;21.904;2023-03-11T08:51:10;96574.18;;;5.72;71.08
36138;BME280;67787;50.074;21.904;2023-03-11T08:53:38;96585.14;;;5.64;70.92
36138;BME280;67787;50.074;21.904;2023-03-11T08:56:05;96589.41;;;5.48;70.94
36138;BME280;67787;50.074;21.904;2023-03-11T08:58:31;96603.96;;;5.41;71.25
36138;BME280;67787;50.074;21.904;2023-03-11T09:00:58;96605.30;;;5.33;71.29
36138;BME280;67787;50.074;21.904;2023-03-11T09:03:24;96607.97;;;5.27;71.33
36138;BME280;67787;50.074;21.904;2023-03-11T09:06:02;96610.95;;;5.19;71.53
36138;BME280;67787;50.074;21.904;2023-03-11T09:08:30;96613.05;;;5.08;71.59
36138;BME280;67787;50.074;21.904;2023-03-11T09:10:57;96618.59;;;4.95;71.95
36138;BME280;67787;50.074;21.904;2023-03-11T09:13:23;96631.80;;;4.84;71.88
36138;BME280;67787;50.074;21.904;2023-03-11T09:15:50;96632.43;;;4.79;72.12
36138;BME280;67787;50.074;21.904;2023-03-11T09:18:17;96637.96;;;4.76;72.14
36138;BME280;67787;50.074;21.904;2023-03-11T09:20:44;96640.21;;;4.74;71.85
36138;BME280;67787;50.074;21.904;2023-03-11T09:23:15;96632.02;;;4.71;71.68
36138;BME280;67787;50.074;21.904;2023-03-11T09:25:42;96642.13;;;4.81;71.69
36138;BME280;67787;50.074;21.904;2023-03-11T09:28:08;96650.98;;;5.00;71.40
36138;BME280;67787;50.074;21.904;2023-03-11T09:30:35;96661.73;;;5.11;71.05
36138;BME280;67787;50.074;21.904;2023-03-11T09:33:01;96664.17;;;5.10;70.94
36138;BME280;67787;50.074;21.904;2023-03-11T09:35:29;96667.70;;;5.03;70.85
36138;BME280;67787;50.074;21.904;2023-03-11T09:37:55;96676.94;;;4.88;70.81
36138;BME280;67787;50.074;21.904;2023-03-11T09:40:25;96679.76;;;4.76;70.82
36138;BME280;67787;50.074;21.904;2023-03-11T09:45:35;96676.02;;;4.60;71.05
36138;BME280;67787;50.074;21.904;2023-03-11T09:48:33;96672.20;;;4.64;71.20
36138;BME280;67787;50.074;21.904;2023-03-11T09:51:19;96671.89;;;4.71;71.14
36138;BME280;67787;50.074;21.904;2023-03-11T09:53:54;96686.23;;;4.68;71.01
36138;BME280;67787;50.074;21.904;2023-03-11T09:56:25;96683.33;;;4.63;71.03
36138;BME280;67787;50.074;21.904;2023-03-11T09:58:59;96679.41;;;4.66;71.12
36138;BME280;67787;50.074;21.904;2023-03-11T10:01:31;96670.27;;;4.84;71.32
36138;BME280;67787;50.074;21.904;2023-03-11T10:04:29;96676.94;;;5.02;71.13
36138;BME280;67787;50.074;21.904;2023-03-11T10:06:52;96684.14;;;5.10;71.05
36138;BME280;67787;50.074;21.904;2023-03-11T10:09:30;96685.33;;;5.09;70.70
36138;BME280;67787;50.074;21.904;2023-03-11T10:14:57;96692.55;;;4.97;70.96
36138;BME280;67787;50.074;21.904;2023-03-11T10:23:11;96700.55;;;5.13;70.93
36138;BME280;67787;50.074;21.904;2023-03-11T10:26:01;96697.39;;;5.24;70.91
36138;BME280;67787;50.074;21.904;2023-03-11T10:32:12;96699.66;;;5.47;70.51
36138;BME280;67787;50.074;21.904;2023-03-11T10:34:50;96696.87;;;5.53;70.16
36138;BME280;67787;50.074;21.904;2023-03-11T10:37:22;96693.27;;;5.42;69.52
36138;BME280;67787;50.074;21.904;2023-03-11T10:39:50;96703.00;;;5.30;69.87
36138;BME280;67787;50.074;21.904;2023-03-11T10:42:21;96701.98;;;5.27;69.87
36138;BME280;67787;50.074;21.904;2023-03-11T10:44:50;96697.18;;;5.42;70.25
36138;BME280;67787;50.074;21.904;2023-03-11T10:47:21;96695.20;;;5.53;70.08
36138;BME280;67787;50.074;21.904;2023-03-11T10:49:48;96699.15;;;5.59;69.71
36138;BME280;67787;50.074;21.904;2023-03-11T10:52:15;96704.10;;;5.51;69.46
36138;BME280;67787;50.074;21.904;2023-03-11T10:54:57;96708.40;;;5.44;70.01
36138;BME280;67787;50.074;21.904;2023-03-11T10:57:33;96708.66;;;5.35;70.30
36138;BME280;67787;50.074;21.904;2023-03-11T11:00:03;96707.80;;;5.29;70.44
36138;BME280;67787;50.074;21.904;2023-03-11T11:02:51;96708.34;;;5.25;70.39
36138;BME280;67787;50.074;21.904;2023-03-11T11:07:51;96704.33;;;5.04;69.88
36138;BME280;67787;50.074;21.904;2023-03-11T11:10:27;96711.20;;;5.08;70.11
36138;BME280;67787;50.074;21.904;2023-03-11T11:13:00;96722.15;;;5.01;70.35
36138;BME280;67787;50.074;21.904;2023-03-11T11:15:36;96720.81;;;5.07;70.41
36138;BME280;67787;50.074;21.904;2023-03-11T11:18:14;96724.20;;;5.31;70.51
36138;BME280;67787;50.074;21.904;2023-03-11T11:28:42;96729.36;;;5.89;69.97
36138;BME280;67787;50.074;21.904;2023-03-11T11:31:24;96734.98;;;5.81;69.65
36138;BME280;67787;50.074;21.904;2023-03-11T11:33:54;96734.77;;;5.74;69.94
36138;BME280;67787;50.074;21.904;2023-03-11T11:36:31;96744.16;;;5.63;69.61
36138;BME280;67787;50.074;21.904;2023-03-11T11:39:02;96748.96;;;5.62;69.58
36138;BME280;67787;50.074;21.904;2023-03-11T11:41:36;96750.52;;;5.63;69.46
36138;BME280;67787;50.074;21.904;2023-03-11T11:44:05;96745.74;;;5.63;69.65
36138;BME280;67787;50.074;21.904;2023-03-11T11:46:56;96755.92;;;5.73;69.09
36138;BME280;67787;50.074;21.904;2023-03-11T11:49:28;96759.37;;;5.64;68.24
36138;BME280;67787;50.074;21.904;2023-03-11T11:57:14;96772.22;;;5.26;68.94
36138;BME280;67787;50.074;21.904;2023-03-11T11:59:41;96776.83;;;5.17;68.80
36138;BME280;67787;50.074;21.904;2023-03-11T12:08:17;96800.95;;;4.71;69.42
36138;BME280;67787;50.074;21.904;2023-03-11T12:27:22;96828.84;;;4.94;69.79
36138;BME280;67787;50.074;21.904;2023-03-11T12:30:00;96826.38;;;5.15;68.99
36138;BME280;67787;50.074;21.904;2023-03-11T12:32:31;96827.02;;;5.20;68.75
36138;BME280;67787;50.074;21.904;2023-03-11T12:35:09;96832.43;;;5.14;68.86
36138;BME280;67787;50.074;21.904;2023-03-11T12:37:44;96836.48;;;5.02;68.33
36138;BME280;67787;50.074;21.904;2023-03-11T12:40:48;96842.34;;;4.72;68.44
36138;BME280;67787;50.074;21.904;2023-03-11T12:46:14;96849.48;;;4.34;68.94
36138;BME280;67787;50.074;21.904;2023-03-11T12:48:48;96855.89;;;4.31;69.08
36138;BME280;67787;50.074;21.904;2023-03-11T12:53:55;96860.61;;;4.20;69.03
36138;BME280;67787;50.074;21.904;2023-03-11T13:04:02;96879.13;;;3.86;68.57
36138;BME280;67787;50.074;21.904;2023-03-11T13:06:40;96885.58;;;3.76;69.07
36138;BME280;67787;50.074;21.904;2023-03-11T13:09:15;96884.16;;;3.71;68.97
36138;BME280;67787;50.074;21.904;2023-03-11T13:11:44;96889.39;;;3.67;69.36
36138;BME280;67787;50.074;21.904;2023-03-11T13:16:47;96900.70;;;3.51;69.49
36138;BME280;67787;50.074;21.904;2023-03-11T13:19:51;96907.56;;;3.48;69.63
36138;BME280;67787;50.074;21.904;2023-03-11T13:25:39;96923.38;;;3.38;69.84
36138;BME280;67787;50.074;21.904;2023-03-11T13:33:54;96925.48;;;3.29;71.18
36138;BME280;67787;50.074;21.904;2023-03-11T13:39:06;96941.86;;;3.25;71.44
36138;BME280;67787;50.074;21.904;2023-03-11T13:41:40;96946.60;;;3.23;70.78
36138;BME280;67787;50.074;21.904;2023-03-11T13:44:27;96954.29;;;3.14;70.67
36138;BME280;67787;50.074;21.904;2023-03-11T13:47:14;96964.91;;;3.08;70.40
36138;BME280;67787;50.074;21.904;2023-03-11T13:52:17;96979.77;;;2.87;70.80
36138;BME280;67787;50.074;21.904;2023-03-11T13:54:54;96986.02;;;2.71;71.75
36138;BME280;67787;50.074;21.904;2023-03-11T13:57:28;96985.77;;;2.53;72.45
36138;BME280;67787;50.074;21.904;2023-03-11T13:59:55;96996.88;;;2.42;72.08
36138;BME280;67787;50.074;21.904;2023-03-11T14:02:25;97014.63;;;2.34;72.84
36138;BME280;67787;50.074;21.904;2023-03-11T14:05:01;97012.41;;;2.26;72.92
36138;BME280;67787;50.074;21.904;2023-03-11T14:07:31;97016.98;;;2.20;72.36
36138;BME280;67787;50.074;21.904;2023-03-11T14:12:49;97035.05;;;2.15;73.07
36138;BME280;67787;50.074;21.904;2023-03-11T14:15:24;97046.62;;;2.09;72.50
36138;BME280;67787;50.074;21.904;2023-03-11T14:17:53;97047.42;;;2.05;72.56
36138;BME280;67787;50.074;21.904;2023-03-11T14:20:39;97060.34;;;1.98;73.61
36138;BME280;67787;50.074;21.904;2023-03-11T14:23:17;97065.89;;;1.91;74.17
36138;BME280;67787;50.074;21.904;2023-03-11T14:25:44;97076.77;;;1.72;76.08
36138;BME280;67787;50.074;21.904;2023-03-11T14:28:19;97081.80;;;1.55;77.10
36138;BME280;67787;50.074;21.904;2023-03-11T14:30:57;97091.20;;;1.39;78.36
36138;BME280;67787;50.074;21.904;2023-03-11T14:33:25;97098.06;;;1.33;78.82
36138;BME280;67787;50.074;21.904;2023-03-11T14:35:57;97103.80;;;1.31;78.61
36138;BME280;67787;50.074;21.904;2023-03-11T14:38:27;97124.65;;;1.17;79.63
36138;BME280;67787;50.074;21.904;2023-03-11T14:41:04;97122.52;;;0.90;81.29
36138;BME280;67787;50.074;21.904;2023-03-11T14:43:36;58277.45;;;-50.68;48.64
36138;BME280;67787;50.074;21.904;2023-03-11T14:46:06;-1.00;;;-128.00;-1.00